createdAt,value
2019-05-30T00:00:43.213Z,20.16
2019-05-30T00:01:43.195Z,20.18
2019-05-30T00:02:43.214Z,20.16
2019-05-30T00:03:43.184Z,20.16
2019-05-30T00:04:43.191Z,20.16
2019-05-30T00:05:43.158Z,20.16
2019-05-30T00:06:43.145Z,20.14
2019-05-30T00:07:43.132Z,20.16
2019-05-30T00:08:43.123Z,20.16
2019-05-30T00:09:43.143Z,20.14
2019-05-30T00:10:43.096Z,20.14
2019-05-30T00:11:43.104Z,20.16
2019-05-30T00:12:43.083Z,20.16
2019-05-30T00:13:43.064Z,20.16
2019-05-30T00:14:43.051Z,20.16
2019-05-30T00:15:43.044Z,20.16
2019-05-30T00:16:43.066Z,20.14
2019-05-30T00:17:43.019Z,20.16
2019-05-30T00:18:43.005Z,20.16
2019-05-30T00:19:43.063Z,20.14
2019-05-30T00:20:42.992Z,20.16
2019-05-30T00:21:42.980Z,20.14
2019-05-30T00:22:42.973Z,20.16
2019-05-30T00:23:42.949Z,20.16
2019-05-30T00:24:42.977Z,20.14
2019-05-30T00:25:42.964Z,20.16
2019-05-30T00:26:42.921Z,20.14
2019-05-30T00:27:42.926Z,20.14
2019-05-30T00:28:42.897Z,20.14
2019-05-30T00:29:42.938Z,20.16
2019-05-30T00:30:42.900Z,20.14
2019-05-30T00:31:42.871Z,20.14
2019-05-30T00:32:42.868Z,20.14
2019-05-30T00:33:42.848Z,20.14
2019-05-30T00:34:42.830Z,20.14
2019-05-30T00:35:42.847Z,20.16
2019-05-30T00:36:42.813Z,20.14
2019-05-30T00:37:42.798Z,20.14
2019-05-30T00:38:42.783Z,20.14
2019-05-30T00:39:42.776Z,20.14
2019-05-30T00:40:42.799Z,20.13
2019-05-30T00:41:42.754Z,20.14
2019-05-30T00:42:42.756Z,20.14
2019-05-30T00:43:42.734Z,20.14
2019-05-30T00:44:42.722Z,20.13
2019-05-30T00:45:42.737Z,20.14
2019-05-30T00:46:42.721Z,20.14
2019-05-30T00:47:42.682Z,20.14
2019-05-30T00:48:42.671Z,20.14
2019-05-30T00:49:42.690Z,20.13
2019-05-30T00:50:42.654Z,20.14
2019-05-30T00:51:42.642Z,20.13
2019-05-30T00:52:42.626Z,20.13
2019-05-30T00:53:42.620Z,20.13
2019-05-30T00:54:42.643Z,20.14
2019-05-30T00:55:42.616Z,20.14
2019-05-30T00:56:42.588Z,20.13
2019-05-30T00:57:42.572Z,20.14
2019-05-30T00:58:42.597Z,20.14
2019-05-30T00:59:42.612Z,20.14
2019-05-30T01:00:44.189Z,20.14
2019-05-30T01:01:42.529Z,20.14
2019-05-30T01:02:42.564Z,20.14
2019-05-30T01:03:42.505Z,20.14
2019-05-30T01:04:42.529Z,20.14
2019-05-30T01:05:42.508Z,20.13
2019-05-30T01:06:42.477Z,20.13
2019-05-30T01:07:42.489Z,20.13
2019-05-30T01:08:42.449Z,20.13
2019-05-30T01:09:42.464Z,20.13
2019-05-30T01:10:42.428Z,20.13
2019-05-30T01:11:42.421Z,20.13
2019-05-30T01:12:42.435Z,20.13
2019-05-30T01:13:42.401Z,20.14
2019-05-30T01:14:42.414Z,20.13
2019-05-30T01:15:42.421Z,20.13
2019-05-30T01:16:42.780Z,20.13
2019-05-30T01:17:42.352Z,20.14
2019-05-30T01:18:42.352Z,20.11
2019-05-30T01:19:42.331Z,20.13
2019-05-30T01:20:42.345Z,20.14
2019-05-30T01:21:42.310Z,20.13
2019-05-30T01:22:42.309Z,20.13
2019-05-30T01:23:42.288Z,20.13
2019-05-30T01:24:42.298Z,20.11
2019-05-30T01:25:42.257Z,20.14
2019-05-30T01:26:42.278Z,20.14
2019-05-30T01:27:42.239Z,20.13
2019-05-30T01:28:42.312Z,20.11
2019-05-30T01:29:42.248Z,20.13
2019-05-30T01:30:56.846Z,20.11
2019-05-30T01:31:43.195Z,20.11
2019-05-30T01:32:42.186Z,20.13
2019-05-30T01:33:42.174Z,20.13
2019-05-30T01:34:42.204Z,20.13
2019-05-30T01:35:42.154Z,20.13
2019-05-30T01:36:42.140Z,20.11
2019-05-30T01:37:42.128Z,20.14
2019-05-30T01:38:42.112Z,20.11
2019-05-30T01:39:42.131Z,20.13
2019-05-30T01:40:42.096Z,20.13
2019-05-30T01:41:42.095Z,20.13
2019-05-30T01:42:42.069Z,20.11
2019-05-30T01:43:42.088Z,20.13
2019-05-30T01:44:42.047Z,20.13
2019-05-30T01:45:42.047Z,20.13
2019-05-30T01:46:42.021Z,20.11
2019-05-30T01:47:42.012Z,20.11
2019-05-30T01:48:42.032Z,20.11
2019-05-30T01:49:41.996Z,20.11
2019-05-30T01:50:41.979Z,20.11
2019-05-30T01:51:42.025Z,20.13
2019-05-30T01:52:41.965Z,20.13
2019-05-30T01:53:41.949Z,20.11
2019-05-30T01:54:41.931Z,20.11
2019-05-30T01:55:41.923Z,20.11
2019-05-30T01:56:41.941Z,20.13
2019-05-30T01:57:41.900Z,20.10
2019-05-30T01:58:41.892Z,20.11
2019-05-30T01:59:41.880Z,20.10
2019-05-30T02:00:41.871Z,20.11
2019-05-30T02:01:41.902Z,20.11
2019-05-30T02:02:41.840Z,20.11
2019-05-30T02:03:41.841Z,20.11
2019-05-30T02:04:41.839Z,20.13
2019-05-30T02:05:41.822Z,20.11
2019-05-30T02:06:41.835Z,20.11
2019-05-30T02:07:41.789Z,20.11
2019-05-30T02:08:41.778Z,20.11
2019-05-30T02:09:41.772Z,20.10
2019-05-30T02:10:41.753Z,20.11
2019-05-30T02:11:41.776Z,20.10
2019-05-30T02:12:41.729Z,20.11
2019-05-30T02:13:41.720Z,20.10
2019-05-30T02:14:41.726Z,20.11
2019-05-30T02:15:41.696Z,20.10
2019-05-30T02:16:41.723Z,20.10
2019-05-30T02:17:41.673Z,20.11
2019-05-30T02:18:41.670Z,20.10
2019-05-30T02:19:41.653Z,20.11
2019-05-30T02:20:41.638Z,20.11
2019-05-30T02:21:41.660Z,20.10
2019-05-30T02:22:41.625Z,20.10
2019-05-30T02:23:41.613Z,20.10
2019-05-30T02:24:41.605Z,20.11
2019-05-30T02:25:41.618Z,20.10
2019-05-30T02:26:41.582Z,20.11
2019-05-30T02:27:41.608Z,20.10
2019-05-30T02:28:41.554Z,20.11
2019-05-30T02:29:41.546Z,20.11
2019-05-30T02:30:41.531Z,20.10
2019-05-30T02:31:41.517Z,20.10
2019-05-30T02:32:41.538Z,20.10
2019-05-30T02:33:41.545Z,20.10
2019-05-30T02:34:41.488Z,20.11
2019-05-30T02:35:41.479Z,20.10
2019-05-30T02:36:41.466Z,20.11
2019-05-30T02:37:41.499Z,20.11
2019-05-30T02:38:41.472Z,20.11
2019-05-30T02:39:41.433Z,20.10
2019-05-30T02:40:41.422Z,20.10
2019-05-30T02:41:41.411Z,20.10
2019-05-30T02:42:41.448Z,20.10
2019-05-30T02:43:41.422Z,20.10
2019-05-30T02:44:41.385Z,20.10
2019-05-30T02:45:41.368Z,20.11
2019-05-30T02:46:41.359Z,20.10
2019-05-30T02:47:41.345Z,20.10
2019-05-30T02:48:57.185Z,20.10
2019-05-30T02:49:42.315Z,20.10
2019-05-30T02:50:41.325Z,20.13
2019-05-30T02:51:41.296Z,20.09
2019-05-30T02:52:41.282Z,20.11
2019-05-30T02:53:41.310Z,20.10
2019-05-30T02:54:41.266Z,20.11
2019-05-30T02:55:41.248Z,20.10
2019-05-30T02:56:41.242Z,20.11
2019-05-30T02:57:41.236Z,20.10
2019-05-30T02:58:41.249Z,20.11
2019-05-30T02:59:41.210Z,20.10
2019-05-30T03:00:41.197Z,20.10
2019-05-30T03:01:58.943Z,20.10
2019-05-30T03:02:42.178Z,20.10
2019-05-30T03:03:41.204Z,20.10
2019-05-30T03:04:41.152Z,20.09
2019-05-30T03:05:41.141Z,20.10
2019-05-30T03:06:41.128Z,20.09
2019-05-30T03:07:41.152Z,20.10
2019-05-30T03:08:41.131Z,20.10
2019-05-30T03:09:41.099Z,20.10
2019-05-30T03:10:41.090Z,20.09
2019-05-30T03:11:41.073Z,20.10
2019-05-30T03:12:41.091Z,20.10
2019-05-30T03:13:41.078Z,20.09
2019-05-30T03:14:41.037Z,20.09
2019-05-30T03:15:41.034Z,20.10
2019-05-30T03:16:41.019Z,20.10
2019-05-30T03:17:41.034Z,20.10
2019-05-30T03:18:41.010Z,20.09
2019-05-30T03:19:40.986Z,20.09
2019-05-30T03:20:40.978Z,20.09
2019-05-30T03:21:40.966Z,20.09
2019-05-30T03:22:40.982Z,20.09
2019-05-30T03:23:40.964Z,20.09
2019-05-30T03:24:40.956Z,20.09
2019-05-30T03:25:40.914Z,20.10
2019-05-30T03:26:40.914Z,20.10
2019-05-30T03:27:40.932Z,20.10
2019-05-30T03:28:40.886Z,20.10
2019-05-30T03:29:40.872Z,20.09
2019-05-30T03:30:40.892Z,20.10
2019-05-30T03:31:40.853Z,20.09
2019-05-30T03:33:43.049Z,20.10
2019-05-30T03:34:40.817Z,20.09
2019-05-30T03:35:43.442Z,20.10
2019-05-30T03:36:40.816Z,20.10
2019-05-30T03:37:40.789Z,20.09
2019-05-30T03:38:40.777Z,20.09
2019-05-30T03:39:40.757Z,20.10
2019-05-30T03:40:40.783Z,20.09
2019-05-30T03:41:40.747Z,20.10
2019-05-30T03:42:40.763Z,20.09
2019-05-30T03:43:40.720Z,20.10
2019-05-30T03:44:40.730Z,20.09
2019-05-30T03:45:40.690Z,20.09
2019-05-30T03:46:40.710Z,20.09
2019-05-30T03:47:40.697Z,20.10
2019-05-30T03:48:40.660Z,20.09
2019-05-30T03:49:40.652Z,20.09
2019-05-30T03:50:40.635Z,20.10
2019-05-30T03:51:40.626Z,20.10
2019-05-30T03:52:40.645Z,20.10
2019-05-30T03:53:40.599Z,20.10
2019-05-30T03:54:40.589Z,20.10
2019-05-30T03:55:40.584Z,20.09
2019-05-30T03:56:40.581Z,20.07
2019-05-30T03:57:40.585Z,20.09
2019-05-30T03:58:40.548Z,20.09
2019-05-30T03:59:40.540Z,20.09
2019-05-30T04:00:40.526Z,20.09
2019-05-30T04:01:40.518Z,20.09
2019-05-30T04:02:55.927Z,20.09
2019-05-30T04:03:41.502Z,20.10
2019-05-30T04:04:40.506Z,20.07
2019-05-30T04:05:40.503Z,20.10
2019-05-30T04:06:40.465Z,20.09
2019-05-30T04:07:40.465Z,20.09
2019-05-30T04:08:40.463Z,20.07
2019-05-30T04:09:40.423Z,20.10
2019-05-30T04:10:40.437Z,20.10
2019-05-30T04:11:40.409Z,20.09
2019-05-30T04:12:40.389Z,20.07
2019-05-30T04:13:40.434Z,20.09
2019-05-30T04:14:40.366Z,20.07
2019-05-30T04:15:40.369Z,20.10
2019-05-30T04:16:40.348Z,20.07
2019-05-30T04:17:40.400Z,20.09
2019-05-30T04:18:40.368Z,20.09
2019-05-30T04:19:40.340Z,20.07
2019-05-30T04:20:40.299Z,20.09
2019-05-30T04:21:40.286Z,20.07
2019-05-30T04:22:40.280Z,20.09
2019-05-30T04:23:40.267Z,20.09
2019-05-30T04:24:40.290Z,20.09
2019-05-30T04:25:40.242Z,20.09
2019-05-30T04:26:40.243Z,20.09
2019-05-30T04:27:40.227Z,20.09
2019-05-30T04:28:40.211Z,20.09
2019-05-30T04:29:40.228Z,20.09
2019-05-30T04:30:40.189Z,20.10
2019-05-30T04:31:40.177Z,20.09
2019-05-30T04:32:40.164Z,20.09
2019-05-30T04:33:40.191Z,20.09
2019-05-30T04:34:40.145Z,20.09
2019-05-30T04:35:40.135Z,20.09
2019-05-30T04:36:40.151Z,20.09
2019-05-30T04:37:40.107Z,20.09
2019-05-30T04:38:40.102Z,20.07
2019-05-30T04:39:40.094Z,20.10
2019-05-30T04:40:40.076Z,20.10
2019-05-30T04:41:40.096Z,20.09
2019-05-30T04:42:40.072Z,20.09
2019-05-30T04:43:40.045Z,20.09
2019-05-30T04:44:40.029Z,20.07
2019-05-30T04:45:40.029Z,20.11
2019-05-30T04:46:40.044Z,20.09
2019-05-30T04:47:39.999Z,20.07
2019-05-30T04:48:39.992Z,20.09
2019-05-30T04:49:39.978Z,20.09
2019-05-30T04:50:39.964Z,20.10
2019-05-30T04:51:39.982Z,20.09
2019-05-30T04:52:39.938Z,20.07
2019-05-30T04:53:39.939Z,20.09
2019-05-30T04:54:39.917Z,20.07
2019-05-30T04:55:39.905Z,20.06
2019-05-30T04:56:39.931Z,20.09
2019-05-30T04:57:39.883Z,20.07
2019-05-30T04:58:42.116Z,20.07
2019-05-30T04:59:39.876Z,20.10
2019-05-30T05:00:39.852Z,20.07
2019-05-30T05:01:39.870Z,20.09
2019-05-30T05:02:39.826Z,20.09
2019-05-30T05:03:45.788Z,20.07
2019-05-30T05:04:40.816Z,20.09
2019-05-30T05:05:39.797Z,20.09
2019-05-30T05:06:39.815Z,20.10
2019-05-30T05:07:39.775Z,20.09
2019-05-30T05:08:39.770Z,20.07
2019-05-30T05:09:39.750Z,20.07
2019-05-30T05:10:39.777Z,20.09
2019-05-30T05:11:39.729Z,20.09
2019-05-30T05:12:39.715Z,20.09
2019-05-30T05:13:39.706Z,20.09
2019-05-30T05:14:39.694Z,20.07
2019-05-30T05:15:39.719Z,20.09
2019-05-30T05:16:39.677Z,20.09
2019-05-30T05:17:39.661Z,20.07
2019-05-30T05:18:39.681Z,20.09
2019-05-30T05:19:39.647Z,20.07
2019-05-30T05:20:39.658Z,20.07
2019-05-30T05:21:39.620Z,20.09
2019-05-30T05:22:39.601Z,20.07
2019-05-30T05:23:39.620Z,20.07
2019-05-30T05:24:39.584Z,20.09
2019-05-30T05:25:39.605Z,20.09
2019-05-30T05:26:39.563Z,20.07
2019-05-30T05:27:39.551Z,20.06
2019-05-30T05:28:39.570Z,20.09
2019-05-30T05:29:39.526Z,20.09
2019-05-30T05:30:39.515Z,20.07
2019-05-30T05:31:39.509Z,20.09
2019-05-30T05:32:39.494Z,20.07
2019-05-30T05:33:53.703Z,20.09
2019-05-30T05:34:40.469Z,20.09
2019-05-30T05:35:39.467Z,20.07
2019-05-30T05:36:39.453Z,20.07
2019-05-30T05:37:39.434Z,20.07
2019-05-30T05:38:39.460Z,20.09
2019-05-30T05:39:39.413Z,20.07
2019-05-30T05:40:39.401Z,20.07
2019-05-30T05:41:39.416Z,20.09
2019-05-30T05:42:39.386Z,20.07
2019-05-30T05:43:39.401Z,20.09
2019-05-30T05:44:39.365Z,20.09
2019-05-30T05:45:39.347Z,20.07
2019-05-30T05:46:39.363Z,20.09
2019-05-30T05:47:39.331Z,20.09
2019-05-30T05:48:39.313Z,20.09
2019-05-30T05:49:39.332Z,20.09
2019-05-30T05:50:39.325Z,20.07
2019-05-30T05:51:39.280Z,20.07
2019-05-30T05:52:39.273Z,20.09
2019-05-30T05:53:39.260Z,20.09
2019-05-30T05:54:39.250Z,20.09
2019-05-30T05:55:39.271Z,20.09
2019-05-30T05:56:39.229Z,20.09
2019-05-30T05:57:39.214Z,20.09
2019-05-30T05:58:39.204Z,20.07
2019-05-30T05:59:39.221Z,20.09
2019-05-30T06:00:39.182Z,20.09
2019-05-30T06:01:39.196Z,20.07
2019-05-30T06:02:39.160Z,20.07
2019-05-30T06:03:39.149Z,20.07
2019-05-30T06:04:39.133Z,20.09
2019-05-30T06:05:52.168Z,20.07
2019-05-30T06:06:40.145Z,20.07
2019-05-30T06:07:39.108Z,20.07
2019-05-30T06:08:39.089Z,20.09
2019-05-30T06:09:39.091Z,20.09
2019-05-30T06:10:39.069Z,20.07
2019-05-30T06:11:39.087Z,20.07
2019-05-30T06:12:39.070Z,20.07
2019-05-30T06:13:39.040Z,20.07
2019-05-30T06:14:39.032Z,20.09
2019-05-30T06:15:39.014Z,20.07
2019-05-30T06:16:39.021Z,20.07
2019-05-30T06:17:39.032Z,20.09
2019-05-30T06:18:38.978Z,20.09
2019-05-30T06:19:46.275Z,20.07
2019-05-30T06:20:39.963Z,20.07
2019-05-30T06:21:52.987Z,20.07
2019-05-30T06:22:39.958Z,20.07
2019-05-30T06:23:38.924Z,20.09
2019-05-30T06:24:38.916Z,20.07
2019-05-30T06:25:38.926Z,20.09
2019-05-30T06:26:38.890Z,20.09
2019-05-30T06:27:38.882Z,20.09
2019-05-30T06:28:38.898Z,20.07
2019-05-30T06:29:38.862Z,20.07
2019-05-30T06:30:38.853Z,20.07
2019-05-30T06:31:38.841Z,20.09
2019-05-30T06:32:38.819Z,20.07
2019-05-30T06:33:38.834Z,20.09
2019-05-30T06:34:40.061Z,20.09
2019-05-30T06:35:38.789Z,20.07
2019-05-30T06:36:38.779Z,20.09
2019-05-30T06:37:38.766Z,20.07
2019-05-30T06:38:38.793Z,20.07
2019-05-30T06:39:38.751Z,20.09
2019-05-30T06:40:38.740Z,20.07
2019-05-30T06:41:38.748Z,20.07
2019-05-30T06:42:38.707Z,20.09
2019-05-30T06:43:38.713Z,20.07
2019-05-30T06:44:38.727Z,20.07
2019-05-30T06:45:38.680Z,20.09
2019-05-30T06:46:38.688Z,20.07
2019-05-30T06:47:38.660Z,20.09
2019-05-30T06:48:38.642Z,20.09
2019-05-30T06:49:38.629Z,20.07
2019-05-30T06:50:38.665Z,20.07
2019-05-30T06:51:38.615Z,20.09
2019-05-30T06:52:38.599Z,20.07
2019-05-30T06:53:38.628Z,20.09
2019-05-30T06:54:38.580Z,20.07
2019-05-30T06:55:38.569Z,20.07
2019-05-30T06:56:38.582Z,20.07
2019-05-30T06:57:38.541Z,20.10
2019-05-30T06:58:47.961Z,20.06
2019-05-30T06:59:39.525Z,20.10
2019-05-30T07:00:38.510Z,20.07
2019-05-30T07:01:38.529Z,20.07
2019-05-30T07:02:38.506Z,20.09
2019-05-30T07:03:38.541Z,20.09
2019-05-30T07:04:51.064Z,20.07
2019-05-30T07:05:40.122Z,20.09
2019-05-30T07:06:38.803Z,20.09
2019-05-30T07:07:38.610Z,20.09
2019-05-30T07:08:38.424Z,20.09
2019-05-30T07:09:38.410Z,20.10
2019-05-30T07:10:38.399Z,20.09
2019-05-30T07:11:38.420Z,20.10
2019-05-30T07:12:38.374Z,20.07
2019-05-30T07:13:38.384Z,20.09
2019-05-30T07:14:38.390Z,20.09
2019-05-30T07:15:38.375Z,20.10
2019-05-30T07:16:38.333Z,20.10
2019-05-30T07:17:38.364Z,20.09
2019-05-30T07:18:38.311Z,20.10
2019-05-30T07:19:38.295Z,20.10
2019-05-30T07:20:38.289Z,20.10
2019-05-30T07:21:38.276Z,20.10
2019-05-30T07:22:38.309Z,20.11
2019-05-30T07:23:39.396Z,20.11
2019-05-30T07:24:38.244Z,20.10
2019-05-30T07:25:38.249Z,20.10
2019-05-30T07:26:38.234Z,20.11
2019-05-30T07:27:38.258Z,20.11
2019-05-30T07:28:38.206Z,20.11
2019-05-30T07:29:38.226Z,20.11
2019-05-30T07:30:38.180Z,20.10
2019-05-30T07:31:38.167Z,20.10
2019-05-30T07:32:38.190Z,20.10
2019-05-30T07:33:38.147Z,20.11
2019-05-30T07:34:38.130Z,20.10
2019-05-30T07:35:38.123Z,20.11
2019-05-30T07:36:38.110Z,20.10
2019-05-30T07:37:38.128Z,20.11
2019-05-30T07:38:38.085Z,20.10
2019-05-30T07:39:38.086Z,20.07
2019-05-30T07:40:38.105Z,20.09
2019-05-30T07:41:38.067Z,20.10
2019-05-30T07:42:38.077Z,20.11
2019-05-30T07:43:38.043Z,20.10
2019-05-30T07:44:38.021Z,20.11
2019-05-30T07:45:38.014Z,20.09
2019-05-30T07:46:38.064Z,20.10
2019-05-30T07:47:38.568Z,20.09
2019-05-30T07:48:38.615Z,20.09
2019-05-30T07:49:38.665Z,20.10
2019-05-30T07:50:38.776Z,20.10
2019-05-30T07:51:39.032Z,20.09
2019-05-30T07:52:39.052Z,20.10
2019-05-30T07:53:39.072Z,20.09
2019-05-30T07:54:39.174Z,20.07
2019-05-30T07:55:37.901Z,20.10
2019-05-30T07:56:38.122Z,20.09
2019-05-30T07:57:40.960Z,20.10
2019-05-30T07:58:37.865Z,20.10
2019-05-30T07:59:38.727Z,20.11
2019-05-30T08:00:37.842Z,20.10
2019-05-30T08:01:39.651Z,20.11
2019-05-30T08:02:38.048Z,20.10
2019-05-30T08:03:38.882Z,20.10
2019-05-30T08:04:37.939Z,20.10
2019-05-30T08:05:38.887Z,20.09
2019-05-30T08:06:37.934Z,20.11
2019-05-30T08:07:38.972Z,20.10
2019-05-30T08:08:38.084Z,20.10
2019-05-30T08:09:37.802Z,20.11
2019-05-30T08:10:38.177Z,20.11
2019-05-30T08:11:37.726Z,20.11
2019-05-30T08:12:38.404Z,20.11
2019-05-30T08:13:37.700Z,20.11
2019-05-30T08:14:37.724Z,20.11
2019-05-30T08:15:43.806Z,20.13
2019-05-30T08:16:38.673Z,20.13
2019-05-30T08:17:37.969Z,20.13
2019-05-30T08:18:37.983Z,20.13
2019-05-30T08:19:38.159Z,20.13
2019-05-30T08:20:38.035Z,20.13
2019-05-30T08:21:38.320Z,20.13
2019-05-30T08:22:38.345Z,20.13
2019-05-30T08:23:38.405Z,20.14
2019-05-30T08:24:38.845Z,20.14
2019-05-30T08:25:38.473Z,20.14
2019-05-30T08:26:38.496Z,20.14
2019-05-30T08:27:38.653Z,20.14
2019-05-30T08:28:38.972Z,20.16
2019-05-30T08:29:38.550Z,20.16
2019-05-30T08:30:38.675Z,20.14
2019-05-30T08:31:38.791Z,20.18
2019-05-30T08:32:38.781Z,20.16
2019-05-30T08:33:37.694Z,20.18
2019-05-30T08:34:38.746Z,20.16
2019-05-30T08:35:48.898Z,20.16
2019-05-30T08:36:39.202Z,20.16
2019-05-30T08:37:37.481Z,20.18
2019-05-30T08:38:37.519Z,20.18
2019-05-30T08:39:37.456Z,20.19
2019-05-30T08:40:37.784Z,20.18
2019-05-30T08:41:37.479Z,20.18
2019-05-30T08:42:38.467Z,20.19
2019-05-30T08:43:37.605Z,20.19
2019-05-30T08:44:38.009Z,20.19
2019-05-30T08:45:38.000Z,20.21
2019-05-30T08:46:37.931Z,20.19
2019-05-30T08:47:38.094Z,20.19
2019-05-30T08:48:38.302Z,20.21
2019-05-30T08:49:38.268Z,20.19
2019-05-30T08:50:41.293Z,20.19
2019-05-30T08:51:38.370Z,20.21
2019-05-30T08:52:38.507Z,20.21
2019-05-30T08:53:38.395Z,20.21
2019-05-30T08:54:38.447Z,20.21
2019-05-30T08:55:38.498Z,20.21
2019-05-30T08:56:38.521Z,20.19
2019-05-30T08:57:38.579Z,20.22
2019-05-30T08:58:37.217Z,20.22
2019-05-30T08:59:37.189Z,20.21
2019-05-30T09:00:37.173Z,20.22
2019-05-30T09:01:37.711Z,20.22
2019-05-30T09:02:37.157Z,20.22
2019-05-30T09:03:38.413Z,20.22
2019-05-30T09:04:37.956Z,20.24
2019-05-30T09:05:37.157Z,20.24
2019-05-30T09:06:37.810Z,20.24
2019-05-30T09:07:38.251Z,20.22
2019-05-30T09:08:37.957Z,20.24
2019-05-30T09:09:38.146Z,20.24
2019-05-30T09:10:37.870Z,20.25
2019-05-30T09:11:37.674Z,20.24
2019-05-30T09:12:38.634Z,20.24
2019-05-30T09:13:37.821Z,20.24
2019-05-30T09:14:38.866Z,20.24
2019-05-30T09:15:38.062Z,20.22
2019-05-30T09:16:36.999Z,20.24
2019-05-30T09:17:38.729Z,20.25
2019-05-30T09:18:38.573Z,20.24
2019-05-30T09:19:38.110Z,20.22
2019-05-30T09:20:38.028Z,20.25
2019-05-30T09:21:38.731Z,20.25
2019-05-30T09:22:38.006Z,20.24
2019-05-30T09:23:38.279Z,20.25
2019-05-30T09:24:38.469Z,20.25
2019-05-30T09:25:37.250Z,20.25
2019-05-30T09:26:38.458Z,20.25
2019-05-30T09:27:37.737Z,20.25
2019-05-30T09:28:37.742Z,20.25
2019-05-30T09:29:38.082Z,20.25
2019-05-30T09:30:38.243Z,20.25
2019-05-30T09:31:38.066Z,20.26
2019-05-30T09:32:36.830Z,20.24
2019-05-30T09:33:36.804Z,20.26
2019-05-30T09:34:36.849Z,20.26
2019-05-30T09:35:36.785Z,20.26
2019-05-30T09:36:36.896Z,20.26
2019-05-30T09:37:36.759Z,20.26
2019-05-30T09:38:36.753Z,20.28
2019-05-30T09:39:36.744Z,20.25
2019-05-30T09:40:36.733Z,20.25
2019-05-30T09:41:36.772Z,20.25
2019-05-30T09:42:36.724Z,20.26
2019-05-30T09:43:36.696Z,20.25
2019-05-30T09:44:36.688Z,20.26
2019-05-30T09:45:36.670Z,20.28
2019-05-30T09:46:36.689Z,20.28
2019-05-30T09:47:36.647Z,20.28
2019-05-30T09:48:36.640Z,20.28
2019-05-30T09:49:36.632Z,20.28
2019-05-30T09:50:36.659Z,20.28
2019-05-30T09:51:36.605Z,20.28
2019-05-30T09:52:36.648Z,20.28
2019-05-30T09:53:36.610Z,20.28
2019-05-30T09:54:36.602Z,20.28
2019-05-30T09:55:36.581Z,20.26
2019-05-30T09:56:36.551Z,20.28
2019-05-30T09:57:36.538Z,20.29
2019-05-30T09:58:36.598Z,20.26
2019-05-30T09:59:36.554Z,20.28
2019-05-30T10:00:36.514Z,20.26
2019-05-30T10:01:36.540Z,20.28
2019-05-30T10:02:36.497Z,20.26
2019-05-30T10:03:36.486Z,20.28
2019-05-30T10:04:36.506Z,20.28
2019-05-30T10:05:36.495Z,20.29
2019-05-30T10:06:36.448Z,20.28
2019-05-30T10:07:36.436Z,20.28
2019-05-30T10:08:36.457Z,20.28
2019-05-30T10:09:36.416Z,20.28
2019-05-30T10:10:36.407Z,20.28
2019-05-30T10:11:36.391Z,20.28
2019-05-30T10:12:36.376Z,20.28
2019-05-30T10:13:36.396Z,20.28
2019-05-30T10:14:36.357Z,20.28
2019-05-30T10:15:36.355Z,20.28
2019-05-30T10:16:36.371Z,20.28
2019-05-30T10:17:36.323Z,20.29
2019-05-30T10:18:36.322Z,20.28
2019-05-30T10:19:36.305Z,20.29
2019-05-30T10:20:36.287Z,20.28
2019-05-30T10:21:36.311Z,20.28
2019-05-30T10:22:36.270Z,20.29
2019-05-30T10:23:36.257Z,20.29
2019-05-30T10:24:36.246Z,20.28
2019-05-30T10:25:36.231Z,20.28
2019-05-30T10:26:36.270Z,20.28
2019-05-30T10:27:36.209Z,20.28
2019-05-30T10:28:36.205Z,20.28
2019-05-30T10:29:36.193Z,20.26
2019-05-30T10:30:36.176Z,20.28
2019-05-30T10:31:36.195Z,20.28
2019-05-30T10:32:36.192Z,20.28
2019-05-30T10:33:36.143Z,20.29
2019-05-30T10:34:36.137Z,20.29
2019-05-30T10:35:36.129Z,20.28
2019-05-30T10:36:44.211Z,20.29
2019-05-30T10:37:37.124Z,20.29
2019-05-30T10:38:36.086Z,20.29
2019-05-30T10:39:36.081Z,20.28
2019-05-30T10:40:36.067Z,20.28
2019-05-30T10:41:36.107Z,20.29
2019-05-30T10:42:36.044Z,20.28
2019-05-30T10:43:36.034Z,20.29
2019-05-30T10:44:36.042Z,20.29
2019-05-30T10:45:38.598Z,20.31
2019-05-30T10:46:36.071Z,20.28
2019-05-30T10:47:35.985Z,20.29
2019-05-30T10:48:35.975Z,20.29
2019-05-30T10:49:35.974Z,20.28
2019-05-30T10:50:35.983Z,20.31
2019-05-30T10:51:35.951Z,20.31
2019-05-30T10:52:35.933Z,20.29
2019-05-30T10:53:37.629Z,20.29
2019-05-30T10:54:35.914Z,20.29
2019-05-30T10:55:35.903Z,20.31
2019-05-30T10:56:35.894Z,20.29
2019-05-30T10:57:35.881Z,20.29
2019-05-30T10:58:35.885Z,20.29
2019-05-30T10:59:35.876Z,20.31
2019-05-30T11:00:35.847Z,20.31
2019-05-30T11:01:35.831Z,20.31
2019-05-30T11:02:35.827Z,20.31
2019-05-30T11:03:35.865Z,20.29
2019-05-30T11:04:35.795Z,20.29
2019-05-30T11:05:35.785Z,20.29
2019-05-30T11:06:35.777Z,20.31
2019-05-30T11:07:35.763Z,20.32
2019-05-30T11:08:35.781Z,20.31
2019-05-30T11:09:35.744Z,20.31
2019-05-30T11:10:35.731Z,20.29
2019-05-30T11:11:35.779Z,20.29
2019-05-30T11:12:35.736Z,20.29
2019-05-30T11:13:35.701Z,20.29
2019-05-30T11:14:35.697Z,20.31
2019-05-30T11:15:35.675Z,20.31
2019-05-30T11:16:35.700Z,20.31
2019-05-30T11:17:35.682Z,20.29
2019-05-30T11:18:35.641Z,20.29
2019-05-30T11:19:35.632Z,20.31
2019-05-30T11:20:35.616Z,20.29
2019-05-30T11:21:35.620Z,20.31
2019-05-30T11:22:35.625Z,20.31
2019-05-30T11:23:35.585Z,20.29
2019-05-30T11:24:35.576Z,20.31
2019-05-30T11:25:35.569Z,20.31
2019-05-30T11:26:35.555Z,20.31
2019-05-30T11:27:35.581Z,20.31
2019-05-30T11:28:35.530Z,20.29
2019-05-30T11:29:35.517Z,20.31
2019-05-30T11:30:35.535Z,20.32
2019-05-30T11:31:35.494Z,20.31
2019-05-30T11:32:35.537Z,20.31
2019-05-30T11:33:35.482Z,20.31
2019-05-30T11:34:35.459Z,20.32
2019-05-30T11:35:35.451Z,20.32
2019-05-30T11:36:35.439Z,20.31
2019-05-30T11:37:35.493Z,20.32
2019-05-30T11:38:35.425Z,20.32
2019-05-30T11:39:35.409Z,20.31
2019-05-30T11:40:35.398Z,20.31
2019-05-30T11:41:35.382Z,20.31
2019-05-30T11:42:35.410Z,20.29
2019-05-30T11:43:35.366Z,20.31
2019-05-30T11:44:35.350Z,20.31
2019-05-30T11:45:35.346Z,20.31
2019-05-30T11:46:35.330Z,20.31
2019-05-30T11:47:35.356Z,20.31
2019-05-30T11:48:35.330Z,20.31
2019-05-30T11:49:35.296Z,20.32
2019-05-30T11:50:35.284Z,20.32
2019-05-30T11:51:35.271Z,20.32
2019-05-30T11:52:35.294Z,20.32
2019-05-30T11:53:35.253Z,20.32
2019-05-30T11:54:35.294Z,20.32
2019-05-30T11:55:35.238Z,20.32
2019-05-30T11:56:35.220Z,20.32
2019-05-30T11:57:35.239Z,20.31
2019-05-30T11:58:35.242Z,20.32
2019-05-30T11:59:35.184Z,20.32
2019-05-30T12:00:35.175Z,20.36
2019-05-30T12:01:35.170Z,20.32
2019-05-30T12:02:35.203Z,20.34
2019-05-30T12:03:35.136Z,20.32
2019-05-30T12:04:35.130Z,20.32
2019-05-30T12:05:35.121Z,20.32
2019-05-30T12:06:35.110Z,20.34
2019-05-30T12:07:36.675Z,20.34
2019-05-30T12:08:35.140Z,20.31
2019-05-30T12:09:35.083Z,20.34
2019-05-30T12:10:35.062Z,20.34
2019-05-30T12:11:35.070Z,20.34
2019-05-30T12:12:35.054Z,20.31
2019-05-30T12:13:35.060Z,20.32
2019-05-30T12:14:35.017Z,20.31
2019-05-30T12:15:35.006Z,20.34
2019-05-30T12:16:35.217Z,20.32
2019-05-30T12:17:34.981Z,20.32
2019-05-30T12:18:35.011Z,20.32
2019-05-30T12:19:34.968Z,20.32
2019-05-30T12:20:34.947Z,20.32
2019-05-30T12:21:34.967Z,20.31
2019-05-30T12:22:34.928Z,20.32
2019-05-30T12:23:34.955Z,20.32
2019-05-30T12:24:34.907Z,20.32
2019-05-30T12:25:34.896Z,20.32
2019-05-30T12:26:34.895Z,20.31
2019-05-30T12:27:34.876Z,20.34
2019-05-30T12:28:34.900Z,20.32
2019-05-30T12:29:34.849Z,20.31
2019-05-30T12:30:34.864Z,20.34
2019-05-30T12:31:34.828Z,20.32
2019-05-30T12:32:34.811Z,20.32
2019-05-30T12:33:34.804Z,20.32
2019-05-30T12:34:34.814Z,20.31
2019-05-30T12:35:34.811Z,20.32
2019-05-30T12:36:34.772Z,20.32
2019-05-30T12:37:34.793Z,20.34
2019-05-30T12:38:34.745Z,20.32
2019-05-30T12:39:34.738Z,20.31
2019-05-30T12:40:34.728Z,20.32
2019-05-30T12:41:34.715Z,20.32
2019-05-30T12:42:34.739Z,20.32
2019-05-30T12:43:34.687Z,20.31
2019-05-30T12:44:34.702Z,20.32
2019-05-30T12:45:34.670Z,20.32
2019-05-30T12:46:34.658Z,20.34
2019-05-30T12:47:34.681Z,20.32
2019-05-30T12:48:34.664Z,20.32
2019-05-30T12:49:34.626Z,20.34
2019-05-30T12:50:34.614Z,20.31
2019-05-30T12:51:34.600Z,20.32
2019-05-30T12:52:34.591Z,20.34
2019-05-30T12:53:34.608Z,20.34